Time;durP1;ratioP1;P1;durP2;ratioP2;P2;SDS_P1;SDS_P2;PMS_P1;PMS_P2;Temp;Humidity;BMP_temperature;BMP_pressure;BME280_temperature;BME280_humidity;BME280_pressure;Samples;Min_cycle;Max_cycle;Signal;HPM_P1;HPM_P2
2022/01/12 00:01:15;;;;;;;0.30;0.10;;;-5.30;99.90;;;;;;5090849;28;20232;-86
2022/01/12 00:03:43;;;;;;;0.30;0.15;;;-5.30;99.90;;;;;;5099798;28;20232;-86
2022/01/12 00:06:10;;;;;;;0.30;0.10;;;-5.40;99.90;;;;;;5111018;28;20207;-86
2022/01/12 00:08:37;;;;;;;0.30;0.10;;;-5.40;99.90;;;;;;5096191;28;20282;-88
2022/01/12 00:11:07;;;;;;;0.30;0.10;;;-5.40;99.90;;;;;;5093156;28;20246;-88
2022/01/12 00:13:35;;;;;;;0.40;0.20;;;-5.40;99.90;;;;;;5094736;28;20208;-88
2022/01/12 00:16:04;;;;;;;0.30;0.10;;;-5.40;99.90;;;;;;5093846;28;20201;-86
2022/01/12 00:18:32;;;;;;;0.30;0.20;;;-5.40;99.90;;;;;;5094671;28;20709;-86
2022/01/12 00:20:59;;;;;;;0.30;0.10;;;-5.50;99.90;;;;;;5095126;28;20201;-87
2022/01/12 00:23:26;;;;;;;0.30;0.20;;;-5.40;99.90;;;;;;5074825;28;20235;-87
2022/01/12 00:26:00;;;;;;;0.30;0.10;;;-5.40;99.90;;;;;;5086256;28;20250;-87
2022/01/12 00:34:00;;;;;;;0.30;0.10;;;-5.30;99.90;;;;;;5082707;28;20648;-86
2022/01/12 00:36:27;;;;;;;0.30;0.20;;;-5.20;99.90;;;;;;5090981;28;20197;-88
2022/01/12 00:38:54;;;;;;;0.30;0.10;;;-5.20;99.90;;;;;;5086703;28;20205;-87
2022/01/12 00:41:21;;;;;;;0.30;0.10;;;-5.10;99.90;;;;;;5075967;28;20193;-86
2022/01/12 00:43:56;;;;;;;1.75;1.65;;;-5.00;99.90;;;;;;5085418;28;20201;-90
2022/01/12 00:46:25;;;;;;;0.30;0.10;;;-4.80;99.90;;;;;;5092075;28;20681;-88
2022/01/12 00:48:54;;;;;;;1.45;1.45;;;-4.80;99.90;;;;;;5091973;28;20488;-87
2022/01/12 00:51:21;;;;;;;0.30;0.10;;;-4.70;99.90;;;;;;5103539;28;20192;-86
2022/01/12 00:53:49;;;;;;;0.30;0.10;;;-4.70;99.90;;;;;;5117228;28;20551;-86
2022/01/12 00:56:16;;;;;;;0.30;0.20;;;-4.70;99.90;;;;;;5109161;28;20258;-89
2022/01/12 00:58:43;;;;;;;0.63;0.63;;;-4.70;99.90;;;;;;5093219;28;20215;-86
2022/01/12 01:01:10;;;;;;;0.30;0.10;;;-4.70;99.90;;;;;;5089354;28;20196;-87
2022/01/12 01:03:38;;;;;;;3.60;1.70;;;-4.70;99.90;;;;;;5077449;28;20209;-87
2022/01/12 01:06:07;;;;;;;0.30;0.10;;;-4.70;99.90;;;;;;5070757;28;20205;-88
2022/01/12 01:08:34;;;;;;;0.30;0.20;;;-4.80;99.90;;;;;;5074507;28;20249;-88
2022/01/12 01:11:01;;;;;;;0.30;0.10;;;-4.70;99.90;;;;;;5091363;28;20228;-86
2022/01/12 01:13:34;;;;;;;1.00;0.40;;;-4.80;99.90;;;;;;5091362;28;20203;-87
2022/01/12 01:16:10;;;;;;;0.30;0.10;;;-4.80;99.90;;;;;;5071915;28;20197;-87
2022/01/12 01:26:53;;;;;;;0.30;0.10;;;-5.40;99.90;;;;;;5089985;28;20520;-86
2022/01/12 01:29:20;;;;;;;0.73;0.73;;;-5.50;99.90;;;;;;5090010;28;20290;-87
2022/01/12 01:31:47;;;;;;;0.30;0.10;;;-5.50;99.90;;;;;;5089867;28;20201;-88
2022/01/12 01:34:17;;;;;;;0.95;0.95;;;-5.60;99.90;;;;;;5089049;28;20591;-86
2022/01/12 01:36:47;;;;;;;0.30;0.10;;;-5.60;99.90;;;;;;5090316;28;20204;-86
2022/01/12 01:39:17;;;;;;;0.30;0.10;;;-5.50;99.90;;;;;;5089636;28;20204;-86
2022/01/12 01:41:49;;;;;;;0.30;0.10;;;-5.40;99.90;;;;;;5089643;28;20192;-85
2022/01/12 01:53:17;;;;;;;0.30;0.10;;;-5.30;99.90;;;;;;5074274;28;20716;-87
2022/01/12 01:55:41;;;;;;;0.30;0.10;;;-5.30;99.90;;;;;;5084840;28;21005;-87
2022/01/12 01:58:08;;;;;;;0.30;0.10;;;-5.40;99.90;;;;;;5085825;28;20252;-86
2022/01/12 02:00:36;;;;;;;0.30;0.10;;;-5.40;99.90;;;;;;5074648;28;20193;-87
2022/01/12 02:03:03;;;;;;;0.30;0.20;;;-5.50;99.90;;;;;;5083198;28;20378;-86
2022/01/12 02:05:32;;;;;;;0.30;0.10;;;-5.60;99.90;;;;;;5076038;28;20254;-86
2022/01/12 02:07:59;;;;;;;0.30;0.10;;;-5.60;99.90;;;;;;5069064;28;20223;-85
2022/01/12 02:10:26;;;;;;;0.30;0.10;;;-5.70;99.90;;;;;;5090064;28;20204;-86
2022/01/12 02:12:53;;;;;;;0.30;0.20;;;-5.70;99.90;;;;;;5080635;28;20261;-88
2022/01/12 02:15:23;;;;;;;0.40;0.20;;;-5.80;99.90;;;;;;5089590;28;20242;-88
2022/01/12 02:18:03;;;;;;;0.30;0.20;;;-5.80;99.90;;;;;;5080522;28;20270;-89
2022/01/12 02:40:06;;;;;;;0.30;0.10;;;-5.90;99.90;;;;;;5077689;28;20831;-86
2022/01/12 02:42:34;;;;;;;0.30;0.10;;;-5.80;99.90;;;;;;5074135;28;20222;-87
2022/01/12 02:50:42;;;;;;;0.30;0.10;;;-5.80;99.90;;;;;;5082567;28;20216;-85
2022/01/12 02:55:55;;;;;;;0.30;0.10;;;-5.90;99.90;;;;;;5089289;28;20196;-87
2022/01/12 02:58:23;;;;;;;0.30;0.10;;;-5.90;99.90;;;;;;5089922;28;20751;-86
2022/01/12 03:03:51;;;;;;;0.30;0.28;;;-5.60;99.90;;;;;;5019788;28;20218;-89
2022/01/12 03:06:21;;;;;;;0.30;0.10;;;-5.50;99.90;;;;;;5079419;28;20266;-86
2022/01/12 03:08:49;;;;;;;0.55;0.35;;;-5.50;99.90;;;;;;5093916;28;20228;-87
2022/01/12 03:11:20;;;;;;;0.30;0.10;;;-5.40;99.90;;;;;;5079192;28;20193;-89
2022/01/12 03:13:48;;;;;;;0.30;0.10;;;-5.40;99.90;;;;;;5073186;28;20214;-87
2022/01/12 03:16:17;;;;;;;0.40;0.30;;;-5.40;99.90;;;;;;5072917;28;20211;-87
2022/01/12 03:18:45;;;;;;;0.30;0.10;;;-5.50;99.90;;;;;;5082460;28;20211;-86
2022/01/12 03:21:13;;;;;;;0.30;0.15;;;-5.40;99.90;;;;;;5093326;28;20201;-88
2022/01/12 03:23:40;;;;;;;0.30;0.10;;;-5.40;99.90;;;;;;5093571;28;20250;-87
2022/01/12 03:26:09;;;;;;;0.30;0.10;;;-5.50;99.90;;;;;;5092208;28;20791;-87
2022/01/12 03:28:39;;;;;;;0.30;0.10;;;-5.50;99.90;;;;;;5091697;28;20634;-87
2022/01/12 03:31:10;;;;;;;0.30;0.10;;;-5.50;99.90;;;;;;5094152;28;20246;-85
2022/01/12 03:33:51;;;;;;;0.30;0.10;;;-5.60;99.90;;;;;;5091869;28;20201;-86
2022/01/12 03:36:27;;;;;;;0.30;0.10;;;-5.70;99.90;;;;;;5084937;28;20193;-87
2022/01/12 03:38:57;;;;;;;0.30;0.10;;;-5.80;99.90;;;;;;5072357;28;20251;-86
2022/01/12 03:41:25;;;;;;;0.30;0.10;;;-5.80;99.90;;;;;;5077160;28;20198;-89
2022/01/12 03:43:54;;;;;;;0.30;0.20;;;-5.80;99.90;;;;;;5091683;28;20197;-90
2022/01/12 03:46:23;;;;;;;0.30;0.10;;;-5.80;99.90;;;;;;5092601;28;20644;-86
2022/01/12 03:48:50;;;;;;;0.30;0.10;;;-5.70;99.90;;;;;;5073804;28;20609;-87
2022/01/12 03:51:18;;;;;;;0.30;0.10;;;-5.70;99.90;;;;;;5071231;28;20313;-86
2022/01/12 03:53:45;;;;;;;0.30;0.10;;;-5.70;99.90;;;;;;5073198;28;20234;-88
2022/01/12 03:56:12;;;;;;;0.30;0.10;;;-5.70;99.90;;;;;;5089926;28;20208;-87
2022/01/12 03:58:39;;;;;;;0.30;0.10;;;-5.70;99.90;;;;;;5116638;28;20216;-87
2022/01/12 04:01:07;;;;;;;0.30;0.20;;;-5.60;99.90;;;;;;5111863;28;20197;-86
2022/01/12 04:03:39;;;;;;;1.65;1.55;;;-5.70;99.90;;;;;;5115730;28;20579;-86
2022/01/12 04:08:51;;;;;;;0.30;0.10;;;-5.70;99.90;;;;;;5088767;28;20647;-89
2022/01/12 04:11:18;;;;;;;0.30;0.20;;;-5.70;99.90;;;;;;5092959;28;20261;-86
2022/01/12 04:13:48;;;;;;;0.30;0.10;;;-5.70;99.90;;;;;;5091803;28;20647;-89
2022/01/12 04:16:17;;;;;;;0.30;0.10;;;-5.70;99.90;;;;;;5091575;28;20542;-88
2022/01/12 04:18:44;;;;;;;0.30;0.10;;;-5.60;99.90;;;;;;5085811;28;20210;-87
2022/01/12 04:21:12;;;;;;;0.30;0.10;;;-5.60;99.90;;;;;;5070973;28;20255;-87
2022/01/12 04:23:40;;;;;;;0.30;0.10;;;-5.60;99.90;;;;;;5085442;28;20200;-86
2022/01/12 04:26:10;;;;;;;0.30;0.10;;;-5.60;99.90;;;;;;5091833;28;20496;-87
2022/01/12 04:28:39;;;;;;;0.30;0.10;;;-5.60;99.90;;;;;;5090228;28;20625;-89
2022/01/12 04:31:07;;;;;;;0.75;0.75;;;-5.60;99.90;;;;;;5091595;28;20540;-87
2022/01/12 04:33:36;;;;;;;0.30;0.10;;;-5.60;99.90;;;;;;5091468;28;20213;-88
2022/01/12 04:36:04;;;;;;;0.30;0.10;;;-5.70;99.90;;;;;;5072587;28;20197;-86
2022/01/12 04:38:34;;;;;;;0.30;0.10;;;-5.70;99.90;;;;;;5076795;28;20192;-87
2022/01/12 04:41:03;;;;;;;0.60;0.60;;;-5.60;99.90;;;;;;5090904;28;20284;-90
2022/01/12 04:43:30;;;;;;;0.30;0.20;;;-5.70;99.90;;;;;;5091212;28;20212;-87
2022/01/12 04:48:55;;;;;;;0.40;0.35;;;-6.00;99.90;;;;;;5082725;28;20208;-86
2022/01/12 04:51:25;;;;;;;0.43;0.43;;;-6.00;99.90;;;;;;5083377;28;20333;-88
2022/01/12 04:53:53;;;;;;;0.30;0.10;;;-6.00;99.90;;;;;;5091036;28;20297;-86
2022/01/12 04:56:20;;;;;;;0.30;0.20;;;-6.00;99.90;;;;;;5078211;28;20281;-87
2022/01/12 04:58:47;;;;;;;0.30;0.10;;;-6.10;99.90;;;;;;5070465;28;20212;-85
2022/01/12 05:01:23;;;;;;;0.30;0.10;;;-6.10;99.90;;;;;;5081582;28;20200;-90
2022/01/12 05:07:07;;;;;;;0.30;0.10;;;-6.10;99.90;;;;;;5091036;28;20851;-86
2022/01/12 05:10:00;;;;;;;0.30;0.10;;;-6.00;99.90;;;;;;5089828;28;20301;-87
2022/01/12 05:15:18;;;;;;;0.30;0.10;;;-5.80;99.90;;;;;;5075008;28;20730;-86
2022/01/12 05:17:45;;;;;;;0.30;0.10;;;-5.90;99.90;;;;;;5071541;28;20198;-87
2022/01/12 05:20:14;;;;;;;0.30;0.10;;;-5.90;99.90;;;;;;5086232;28;20253;-86
2022/01/12 05:22:41;;;;;;;0.30;0.10;;;-5.90;99.90;;;;;;5090235;28;20203;-86
2022/01/12 05:25:09;;;;;;;0.40;0.30;;;-5.90;99.90;;;;;;5091157;28;20589;-87
2022/01/12 05:27:36;;;;;;;0.30;0.10;;;-5.80;99.90;;;;;;5089974;28;20253;-87
2022/01/12 05:30:03;;;;;;;0.30;0.10;;;-5.80;99.90;;;;;;5093121;28;20220;-86
2022/01/12 05:32:30;;;;;;;0.30;0.10;;;-5.70;99.90;;;;;;5105937;28;20196;-89
2022/01/12 05:35:01;;;;;;;0.30;0.10;;;-5.80;99.90;;;;;;5112690;28;20224;-86
2022/01/12 05:37:29;;;;;;;0.30;0.10;;;-5.90;99.90;;;;;;5115959;28;20279;-86
2022/01/12 05:39:56;;;;;;;0.30;0.10;;;-6.00;99.90;;;;;;5104117;28;20621;-86
2022/01/12 05:42:23;;;;;;;0.30;0.10;;;-6.00;99.90;;;;;;5093075;28;20207;-88
2022/01/12 05:44:50;;;;;;;0.30;0.10;;;-6.00;99.90;;;;;;5086040;28;20298;-89
2022/01/12 05:47:33;;;;;;;0.30;0.20;;;-6.00;99.90;;;;;;5090342;28;20196;-86
2022/01/12 05:49:59;;;;;;;0.30;0.10;;;-6.00;99.90;;;;;;5089311;28;20323;-89
2022/01/12 05:52:26;;;;;;;0.30;0.20;;;-6.10;99.90;;;;;;5090766;28;20230;-86
2022/01/12 05:54:55;;;;;;;0.30;0.10;;;-6.20;99.90;;;;;;5089393;28;20439;-85
2022/01/12 05:57:22;;;;;;;0.30;0.10;;;-6.30;99.90;;;;;;5083928;28;20228;-86
2022/01/12 05:59:49;;;;;;;0.30;0.20;;;-6.40;99.90;;;;;;5079766;28;20253;-87
2022/01/12 06:02:16;;;;;;;0.30;0.10;;;-6.40;99.90;;;;;;5088715;28;20197;-88
2022/01/12 06:04:43;;;;;;;0.30;0.10;;;-6.50;99.90;;;;;;5079400;28;20253;-87
2022/01/12 06:07:10;;;;;;;0.30;0.10;;;-6.60;99.90;;;;;;5083938;28;20217;-86
2022/01/12 06:09:37;;;;;;;0.30;0.10;;;-6.60;99.90;;;;;;5089825;28;20279;-87
2022/01/12 06:12:06;;;;;;;0.30;0.10;;;-6.60;99.90;;;;;;5090184;28;20189;-86
2022/01/12 06:14:33;;;;;;;0.30;0.10;;;-6.50;99.90;;;;;;5082910;28;20288;-87
2022/01/12 06:17:00;;;;;;;0.30;0.10;;;-6.40;99.90;;;;;;5069509;28;20205;-86
2022/01/12 06:19:27;;;;;;;0.30;0.10;;;-6.40;99.90;;;;;;5073006;28;20226;-89
2022/01/12 06:21:54;;;;;;;1.55;1.55;;;-6.30;99.90;;;;;;5090125;28;20197;-87
2022/01/12 06:24:21;;;;;;;0.30;0.20;;;-6.20;99.90;;;;;;5089170;28;20225;-87
2022/01/12 06:26:48;;;;;;;0.30;0.10;;;-6.00;99.90;;;;;;5089109;28;20816;-86
2022/01/12 06:29:27;;;;;;;0.30;0.10;;;-5.90;99.90;;;;;;5088735;28;20290;-87
2022/01/12 06:31:56;;;;;;;0.30;0.20;;;-5.90;99.90;;;;;;5093057;28;20197;-88
2022/01/12 06:34:24;;;;;;;0.30;0.10;;;-5.80;99.90;;;;;;5093837;28;20254;-88
2022/01/12 06:36:51;;;;;;;0.30;0.15;;;-6.00;99.90;;;;;;5093521;28;20197;-87
2022/01/12 06:39:20;;;;;;;0.30;0.10;;;-6.00;99.90;;;;;;5092270;28;20262;-89
2022/01/12 06:41:48;;;;;;;0.30;0.10;;;-5.90;99.90;;;;;;5093197;28;20201;-88
2022/01/12 06:44:17;;;;;;;0.40;0.20;;;-5.90;99.90;;;;;;5093632;28;20208;-86
2022/01/12 06:46:45;;;;;;;0.30;0.10;;;-6.00;99.90;;;;;;5085661;28;20206;-88
2022/01/12 06:49:12;;;;;;;0.30;0.10;;;-6.00;99.90;;;;;;5093080;28;20212;-88
2022/01/12 06:51:39;;;;;;;0.35;0.20;;;-6.10;99.90;;;;;;5083431;28;20652;-88
2022/01/12 06:54:07;;;;;;;0.30;0.20;;;-6.10;99.90;;;;;;5092694;28;20285;-87
2022/01/12 06:56:34;;;;;;;0.30;0.20;;;-6.20;99.90;;;;;;5092559;28;20764;-88
2022/01/12 06:59:01;;;;;;;0.50;0.50;;;-6.30;99.90;;;;;;5092711;28;20250;-87
2022/01/12 07:01:30;;;;;;;0.30;0.10;;;-6.20;99.90;;;;;;5092511;28;20242;-86
2022/01/12 07:03:57;;;;;;;0.30;0.17;;;-6.10;99.90;;;;;;5093472;28;20200;-86
2022/01/12 07:06:25;;;;;;;0.30;0.10;;;-6.00;99.90;;;;;;5096992;28;20230;-87
2022/01/12 07:08:52;;;;;;;0.30;0.10;;;-5.90;99.90;;;;;;5117846;28;20189;-87
2022/01/12 07:11:19;;;;;;;0.30;0.10;;;-5.70;99.90;;;;;;5113129;28;20255;-87
2022/01/12 07:13:47;;;;;;;0.30;0.10;;;-5.50;99.90;;;;;;5114679;28;20238;-85
2022/01/12 07:16:14;;;;;;;0.30;0.10;;;-5.40;99.90;;;;;;5106311;28;20258;-85
2022/01/12 07:18:42;;;;;;;0.30;0.10;;;-5.20;99.90;;;;;;5096343;28;20624;-86
2022/01/12 07:21:09;;;;;;;0.30;0.20;;;-5.00;99.90;;;;;;5093590;28;20257;-87
2022/01/12 07:23:36;;;;;;;0.30;0.20;;;-4.90;99.90;;;;;;5093187;28;20234;-86
2022/01/12 07:26:03;;;;;;;0.40;0.30;;;-4.80;99.90;;;;;;5084385;28;20274;-86
2022/01/12 07:28:30;;;;;;;0.30;0.10;;;-4.60;99.90;;;;;;5086673;28;20205;-86
2022/01/12 07:30:57;;;;;;;0.30;0.20;;;-4.60;99.90;;;;;;5092756;28;20281;-86
2022/01/12 07:33:25;;;;;;;0.30;0.10;;;-4.40;99.90;;;;;;5087198;28;20193;-85
2022/01/12 07:35:54;;;;;;;0.30;0.20;;;-4.30;99.90;;;;;;5080010;28;20820;-85
2022/01/12 07:38:21;;;;;;;0.30;0.10;;;-4.20;99.90;;;;;;5091750;28;20204;-85
2022/01/12 07:40:48;;;;;;;0.30;0.20;;;-4.10;99.90;;;;;;5089890;28;20650;-85
2022/01/12 07:43:15;;;;;;;0.30;0.10;;;-4.10;99.90;;;;;;5091922;28;20242;-85
2022/01/12 07:45:42;;;;;;;0.30;0.10;;;-4.00;99.90;;;;;;5094154;28;20680;-87
2022/01/12 07:48:09;;;;;;;0.30;0.10;;;-4.00;99.90;;;;;;5089009;28;20215;-85
2022/01/12 07:50:36;;;;;;;0.30;0.20;;;-3.90;99.90;;;;;;5091673;28;20225;-85
2022/01/12 07:53:04;;;;;;;0.30;0.10;;;-3.80;99.90;;;;;;5091648;28;20251;-87
2022/01/12 07:55:31;;;;;;;0.30;0.10;;;-3.80;99.90;;;;;;5084066;28;20658;-86
2022/01/12 07:57:59;;;;;;;0.30;0.10;;;-3.70;99.90;;;;;;5085059;28;20224;-86
2022/01/12 08:00:27;;;;;;;0.30;0.10;;;-3.60;99.90;;;;;;5090885;28;20669;-86
2022/01/12 08:02:54;;;;;;;0.30;0.10;;;-3.30;99.90;;;;;;5092335;28;20197;-85
2022/01/12 08:05:21;;;;;;;0.30;0.10;;;-3.40;99.90;;;;;;5077893;28;20266;-87
2022/01/12 08:07:49;;;;;;;0.30;0.10;;;-3.20;99.90;;;;;;5071871;28;20198;-86
2022/01/12 08:10:18;;;;;;;1.85;1.75;;;-3.10;99.90;;;;;;5086191;28;20274;-87
2022/01/12 08:12:45;;;;;;;0.40;0.30;;;-3.00;99.90;;;;;;5076854;28;20198;-85
2022/01/12 08:15:12;;;;;;;0.30;0.10;;;-2.90;99.90;;;;;;5071613;28;20201;-87
2022/01/12 08:17:40;;;;;;;0.30;0.10;;;-2.90;99.90;;;;;;5080926;28;20205;-84
2022/01/12 08:20:11;;;;;;;0.30;0.10;;;-2.90;99.90;;;;;;5091166;28;20201;-85
2022/01/12 08:22:38;;;;;;;0.30;0.10;;;-2.80;99.90;;;;;;5091863;28;20242;-86
2022/01/12 08:25:06;;;;;;;0.30;0.10;;;-2.70;99.90;;;;;;5090938;28;20201;-86
2022/01/12 08:27:34;;;;;;;0.30;0.10;;;-2.70;99.90;;;;;;5078569;28;20829;-87
2022/01/12 08:30:02;;;;;;;0.30;0.10;;;-2.70;99.90;;;;;;5071524;28;20330;-85
2022/01/12 08:32:30;;;;;;;0.30;0.10;;;-2.70;99.90;;;;;;5070759;28;20194;-85
2022/01/12 08:34:57;;;;;;;0.40;0.38;;;-2.60;99.90;;;;;;5085054;28;20596;-86
2022/01/12 08:37:25;;;;;;;0.30;0.10;;;-2.60;99.90;;;;;;5071305;28;20201;-87
2022/01/12 08:39:52;;;;;;;0.30;0.10;;;-2.60;99.90;;;;;;5070949;28;20206;-89
2022/01/12 08:42:19;;;;;;;0.30;0.10;;;-2.50;99.90;;;;;;5111544;28;20207;-85
2022/01/12 08:44:48;;;;;;;0.30;0.10;;;-2.40;99.90;;;;;;5106859;28;20215;-86
2022/01/12 08:47:15;;;;;;;0.30;0.10;;;-2.40;99.90;;;;;;5111062;28;20215;-85
2022/01/12 08:49:42;;;;;;;0.30;0.10;;;-2.40;99.90;;;;;;5090699;28;20217;-85
2022/01/12 08:52:09;;;;;;;0.30;0.10;;;-2.40;99.90;;;;;;5072785;28;20590;-85
2022/01/12 08:54:36;;;;;;;0.75;0.75;;;-2.30;99.90;;;;;;5071199;28;20197;-87
2022/01/12 08:57:04;;;;;;;0.30;0.10;;;-2.30;99.90;;;;;;5071620;28;20233;-85
2022/01/12 08:59:31;;;;;;;1.70;0.82;;;-2.30;99.90;;;;;;5070747;28;20256;-86
2022/01/12 09:01:59;;;;;;;0.40;0.32;;;-2.30;99.90;;;;;;5070622;28;20197;-86
2022/01/12 09:04:28;;;;;;;0.30;0.20;;;-2.30;99.90;;;;;;5086270;28;20212;-86
2022/01/12 09:06:55;;;;;;;0.30;0.10;;;-2.30;99.90;;;;;;5080339;28;20304;-86
2022/01/12 09:09:22;;;;;;;0.30;0.20;;;-2.20;99.90;;;;;;5078108;28;20261;-86
2022/01/12 09:11:49;;;;;;;0.30;0.10;;;-2.30;99.90;;;;;;5090663;28;20220;-86
2022/01/12 09:14:16;;;;;;;0.38;0.30;;;-2.30;99.90;;;;;;5090039;28;20205;-86
2022/01/12 09:16:43;;;;;;;0.30;0.10;;;-2.20;99.90;;;;;;5090059;28;20545;-88
2022/01/12 09:19:12;;;;;;;1.27;1.27;;;-2.30;99.90;;;;;;5090442;28;20232;-86
2022/01/12 09:21:39;;;;;;;0.30;0.20;;;-2.20;99.90;;;;;;5078299;28;20202;-86
2022/01/12 09:24:06;;;;;;;0.30;0.10;;;-2.10;99.90;;;;;;5070287;28;20201;-85
2022/01/12 09:26:33;;;;;;;0.30;0.10;;;-2.00;99.90;;;;;;5086841;28;20205;-85
2022/01/12 09:29:02;;;;;;;0.82;0.32;;;-2.00;99.90;;;;;;5081438;28;20233;-86
2022/01/12 09:31:29;;;;;;;0.30;0.10;;;-2.00;99.90;;;;;;5069939;28;20225;-86
2022/01/12 09:33:56;;;;;;;0.30;0.10;;;-1.90;99.90;;;;;;5080275;28;20246;-86
2022/01/12 09:36:24;;;;;;;0.30;0.10;;;-1.90;99.90;;;;;;5090982;28;20201;-85
2022/01/12 09:38:51;;;;;;;0.30;0.10;;;-1.80;99.90;;;;;;5075258;28;20252;-85
2022/01/12 09:41:18;;;;;;;0.80;0.57;;;-1.90;99.90;;;;;;5076799;28;20197;-86
2022/01/12 09:43:49;;;;;;;0.30;0.10;;;-1.90;99.90;;;;;;5090063;28;20793;-88
2022/01/12 09:46:17;;;;;;;0.30;0.10;;;-1.80;99.90;;;;;;5085889;28;20197;-86
2022/01/12 09:48:44;;;;;;;0.40;0.40;;;-1.80;99.90;;;;;;5087041;28;20217;-87
2022/01/12 09:51:11;;;;;;;0.30;0.20;;;-1.80;99.90;;;;;;5089009;28;20266;-86
2022/01/12 09:53:41;;;;;;;1.38;0.47;;;-1.70;99.90;;;;;;5088752;28;20204;-86
2022/01/12 09:56:16;;;;;;;0.30;0.10;;;-1.60;99.90;;;;;;5089422;28;20201;-89
2022/01/12 09:58:43;;;;;;;0.30;0.10;;;-1.70;99.90;;;;;;5081470;28;20695;-85
2022/01/12 10:01:10;;;;;;;0.30;0.10;;;-1.60;99.90;;;;;;5069234;28;20201;-87
2022/01/12 10:03:38;;;;;;;0.63;0.63;;;-1.40;99.90;;;;;;5085169;28;20228;-86
2022/01/12 10:06:13;;;;;;;0.30;0.10;;;-1.30;99.90;;;;;;5089414;28;20230;-86
2022/01/12 10:08:42;;;;;;;0.30;0.10;;;-1.30;99.90;;;;;;5099576;28;20289;-84
2022/01/12 10:11:12;;;;;;;0.40;0.38;;;-1.20;99.90;;;;;;5093450;28;20218;-86
2022/01/12 10:13:40;;;;;;;0.40;0.38;;;-1.20;99.90;;;;;;5098604;28;20250;-85
2022/01/12 10:16:12;;;;;;;0.52;0.52;;;-1.10;99.90;;;;;;5104327;28;20192;-85
2022/01/12 10:18:51;;;;;;;1.27;1.17;;;-1.10;99.90;;;;;;5114495;28;20242;-85
2022/01/12 10:21:28;;;;;;;0.30;0.20;;;-0.90;99.90;;;;;;5103371;28;20201;-85
2022/01/12 10:23:58;;;;;;;0.30;0.10;;;-0.90;99.90;;;;;;5092328;28;20205;-86
2022/01/12 10:26:29;;;;;;;0.30;0.10;;;-1.00;99.90;;;;;;5073183;28;20198;-85
2022/01/12 10:29:03;;;;;;;1.25;0.65;;;-0.90;99.90;;;;;;5080914;28;20201;-87
2022/01/12 10:31:30;;;;;;;0.30;0.10;;;-0.90;99.90;;;;;;5083845;28;20217;-86
2022/01/12 10:34:03;;;;;;;0.30;0.10;;;-1.00;99.90;;;;;;5081657;28;20286;-88
2022/01/12 10:36:38;;;;;;;0.30;0.20;;;-1.00;99.90;;;;;;5090665;28;20204;-87
2022/01/12 10:39:11;;;;;;;0.57;0.57;;;-1.00;99.90;;;;;;5089570;28;20980;-86
2022/01/12 10:41:42;;;;;;;0.30;0.10;;;-1.00;99.90;;;;;;5087796;28;20204;-86
2022/01/12 10:44:20;;;;;;;0.55;0.55;;;-1.00;99.90;;;;;;5086712;28;20246;-86
2022/01/12 10:46:47;;;;;;;2.58;2.00;;;-0.80;99.90;;;;;;5088491;28;20521;-86
2022/01/12 10:49:20;;;;;;;0.30;0.10;;;-0.80;99.90;;;;;;5069205;28;20201;-86
2022/01/12 10:51:56;;;;;;;0.43;0.43;;;-1.00;99.90;;;;;;5069743;28;20264;-87
2022/01/12 10:54:25;;;;;;;0.30;0.10;;;-1.20;99.90;;;;;;5069545;28;20185;-88
2022/01/12 10:56:53;;;;;;;0.40;0.20;;;-1.20;99.90;;;;;;5081492;28;20261;-87
2022/01/12 10:59:21;;;;;;;0.30;0.20;;;-0.90;99.90;;;;;;5087560;28;20266;-86
2022/01/12 11:01:48;;;;;;;0.63;0.60;;;-0.70;99.90;;;;;;5070439;28;20206;-86
2022/01/12 11:04:15;;;;;;;0.43;0.43;;;-0.60;99.90;;;;;;5083214;28;20280;-87
2022/01/12 11:06:42;;;;;;;0.30;0.10;;;-0.70;99.90;;;;;;5088139;28;20223;-86
2022/01/12 11:09:10;;;;;;;0.30;0.10;;;-0.70;99.90;;;;;;5089591;28;20187;-87
2022/01/12 11:11:38;;;;;;;1.85;1.00;;;-0.50;99.90;;;;;;5074766;28;20223;-87
2022/01/12 11:14:05;;;;;;;0.30;0.10;;;-0.30;99.90;;;;;;5069260;28;20231;-88
2022/01/12 11:16:32;;;;;;;0.40;0.30;;;-0.20;99.90;;;;;;5089554;28;20288;-90
2022/01/12 11:19:01;;;;;;;0.30;0.10;;;-0.20;99.90;;;;;;5073154;28;20200;-87
2022/01/12 11:21:41;;;;;;;0.40;0.30;;;-0.10;99.90;;;;;;5073286;28;20249;-86
2022/01/12 11:24:12;;;;;;;0.40;0.30;;;0.20;99.90;;;;;;5086607;28;20204;-88
2022/01/12 11:26:49;;;;;;;0.40;0.35;;;0.40;99.90;;;;;;5093786;28;20268;-89
2022/01/12 11:29:27;;;;;;;0.30;0.10;;;0.30;99.90;;;;;;5079434;28;20278;-86
2022/01/12 11:32:04;;;;;;;0.30;0.10;;;0.10;99.90;;;;;;5072243;28;20232;-87
2022/01/12 11:34:31;;;;;;;0.30;0.10;;;-0.10;99.90;;;;;;5088040;28;20299;-86
2022/01/12 11:36:58;;;;;;;0.30;0.10;;;0.00;99.90;;;;;;5079405;28;20596;-87
2022/01/12 11:39:32;;;;;;;0.30;0.10;;;0.00;99.90;;;;;;5072628;28;20200;-87
2022/01/12 11:42:00;;;;;;;0.30;0.10;;;0.10;99.90;;;;;;5080093;28;20222;-86
2022/01/12 11:44:29;;;;;;;0.30;0.20;;;0.20;99.90;;;;;;5072630;28;20200;-87
2022/01/12 11:46:59;;;;;;;0.30;0.10;;;0.30;99.90;;;;;;5078457;28;20190;-87
2022/01/12 11:49:29;;;;;;;0.30;0.10;;;0.20;99.90;;;;;;5090648;28;20223;-87
2022/01/12 11:51:57;;;;;;;0.30;0.10;;;0.10;99.90;;;;;;5111969;28;20233;-90
2022/01/12 11:54:32;;;;;;;0.30;0.20;;;0.00;99.90;;;;;;5115294;28;20194;-87
2022/01/12 11:57:02;;;;;;;0.30;0.20;;;-0.10;99.90;;;;;;5094924;28;20251;-87
2022/01/12 11:59:31;;;;;;;0.30;0.20;;;-0.20;99.90;;;;;;5102407;28;20677;-90
2022/01/12 12:02:08;;;;;;;1.30;0.85;;;-0.30;99.90;;;;;;5093193;28;20656;-87
2022/01/12 12:04:35;;;;;;;0.30;0.10;;;-0.40;99.90;;;;;;5092192;28;20502;-88
2022/01/12 12:07:08;;;;;;;0.30;0.10;;;-0.40;99.90;;;;;;5092257;28;20222;-87
2022/01/12 12:09:43;;;;;;;0.30;0.10;;;-0.60;99.90;;;;;;5087924;28;20209;-92
2022/01/12 12:12:19;;;;;;;0.30;0.10;;;-0.70;99.90;;;;;;5090652;28;20228;-89
2022/01/12 12:14:48;;;;;;;0.30;0.10;;;-0.70;99.90;;;;;;5091645;28;20189;-89
2022/01/12 12:17:15;;;;;;;0.30;0.10;;;-0.70;99.90;;;;;;5087518;28;20221;-88
2022/01/12 12:19:43;;;;;;;0.30;0.20;;;-0.70;99.90;;;;;;5071506;28;20554;-88
2022/01/12 12:22:12;;;;;;;0.30;0.15;;;-0.60;99.90;;;;;;5074838;28;20256;-89
2022/01/12 12:24:40;;;;;;;0.30;0.20;;;-0.60;99.90;;;;;;5091859;28;20206;-88
2022/01/12 12:27:10;;;;;;;1.27;1.27;;;-0.50;99.90;;;;;;5090856;28;20206;-88
2022/01/12 12:29:39;;;;;;;0.65;0.65;;;-0.50;99.90;;;;;;5088929;28;20197;-89
2022/01/12 12:32:12;;;;;;;0.30;0.10;;;-0.50;99.90;;;;;;5091879;28;20301;-88
2022/01/12 12:34:41;;;;;;;0.30;0.10;;;-0.50;99.90;;;;;;5090841;28;20670;-88
2022/01/12 12:37:10;;;;;;;0.30;0.20;;;-0.40;99.90;;;;;;5091181;28;20199;-88
2022/01/12 12:39:39;;;;;;;0.40;0.35;;;-0.40;99.90;;;;;;5080348;28;20196;-86
2022/01/12 12:42:15;;;;;;;0.30;0.10;;;-0.50;99.90;;;;;;5085787;28;20259;-90
2022/01/12 12:44:44;;;;;;;0.52;0.52;;;-0.40;99.90;;;;;;5070304;28;20718;-91
2022/01/12 12:47:13;;;;;;;1.45;1.17;;;-0.40;99.90;;;;;;5070704;28;20706;-88
2022/01/12 12:49:48;;;;;;;0.30;0.20;;;-0.30;99.90;;;;;;5071655;28;20222;-91
2022/01/12 12:52:23;;;;;;;0.30;0.20;;;-0.40;99.90;;;;;;5070052;28;20287;-88
2022/01/12 12:54:51;;;;;;;0.30;0.10;;;-0.20;99.90;;;;;;5070880;28;20265;-89
2022/01/12 12:57:21;;;;;;;0.30;0.10;;;-0.20;99.90;;;;;;5070702;28;20230;-90
2022/01/12 12:59:50;;;;;;;0.77;0.77;;;-0.20;99.90;;;;;;5074065;28;20205;-91
2022/01/12 13:02:18;;;;;;;0.30;0.10;;;-0.10;99.90;;;;;;5090925;28;20197;-88
2022/01/12 13:04:46;;;;;;;2.17;0.90;;;-0.10;99.90;;;;;;5081667;28;20256;-89
2022/01/12 13:07:16;;;;;;;0.95;0.32;;;0.00;99.90;;;;;;5070505;28;20722;-89
2022/01/12 13:09:44;;;;;;;0.30;0.20;;;-0.10;99.90;;;;;;5080329;28;20691;-91
2022/01/12 13:12:11;;;;;;;0.40;0.30;;;-0.10;99.90;;;;;;5090013;28;20799;-91
2022/01/12 13:14:43;;;;;;;0.30;0.10;;;-0.20;99.90;;;;;;5077154;28;20202;-87
2022/01/12 13:17:12;;;;;;;0.30;0.10;;;-0.20;99.90;;;;;;5088003;28;20209;-90
2022/01/12 13:22:25;;;;;;;0.30;0.10;;;-0.30;99.90;;;;;;5070989;28;20323;-88
2022/01/12 13:24:52;;;;;;;0.40;0.35;;;-0.30;99.90;;;;;;5081385;28;20265;-89
2022/01/12 13:27:21;;;;;;;0.30;0.10;;;-0.30;99.90;;;;;;5105105;28;20258;-92
2022/01/12 13:29:48;;;;;;;0.30;0.10;;;-0.40;99.90;;;;;;5112935;28;20232;-90
2022/01/12 13:32:17;;;;;;;0.70;0.57;;;-0.40;99.90;;;;;;5107153;28;20247;-90
2022/01/12 13:34:55;;;;;;;0.30;0.10;;;-0.40;99.90;;;;;;5100239;28;20254;-92
2022/01/12 13:37:22;;;;;;;0.30;0.10;;;-0.30;99.90;;;;;;5074058;28;20202;-90
2022/01/12 13:40:07;;;;;;;0.30;0.20;;;-0.30;99.90;;;;;;5071019;28;20288;-89
2022/01/12 13:42:45;;;;;;;0.30;0.10;;;-0.30;99.90;;;;;;5088903;28;20244;-89
2022/01/12 13:45:15;;;;;;;0.30;0.17;;;-0.30;99.90;;;;;;5089396;28;20518;-89
2022/01/12 13:47:49;;;;;;;0.30;0.10;;;-0.20;99.90;;;;;;5085660;28;20201;-90
2022/01/12 13:50:19;;;;;;;0.30;0.10;;;-0.20;99.90;;;;;;5087364;28;20685;-91
2022/01/12 13:52:53;;;;;;;0.30;0.20;;;-0.20;99.90;;;;;;5089666;28;20670;-90
2022/01/12 13:55:20;;;;;;;0.30;0.10;;;-0.20;99.90;;;;;;5087959;28;20284;-92
2022/01/12 13:57:56;;;;;;;0.40;0.40;;;-0.10;99.90;;;;;;5090375;28;20351;-90
2022/01/12 14:00:24;;;;;;;0.30;0.10;;;-0.10;99.90;;;;;;5090265;28;20587;-88
2022/01/12 14:02:53;;;;;;;0.30;0.10;;;-0.20;99.90;;;;;;5085204;28;20213;-87
2022/01/12 14:05:22;;;;;;;0.40;0.30;;;-0.20;99.90;;;;;;5090500;28;20203;-88